Ханты-Мансийск

Карта отелей и гостиниц, располагающихся рядом с аэропортом Ханты-Мансийск :

Ханты-Мансийск Ханты-Мансийский автономный округ - Югра 61° 1' 42.6" N, 69° 5' 11.2812" E
Код аэродрома ИКАО
USHH
Код аэродрома RU
УСХХ
Координаты
N61.02850° E069.08647°
Превышение над уровнем моря
42
Основная полоса
06/24
Курс магнитный
057,9/237,9
Длина основной ВПП
2800
Ширина основной ВПП
45
Покрытие основной ВПП
Твёрдое
Освещение ВПП
Постоянное
Тип: 
Аэродром
Класс аэродрома: 
Международный
Принадлежность: 
ГА
Статус: 
Действующий
Страна: 
Россия
Регион: 
Ханты-Мансийский автономный округ - Югра
Дополнительная информация: 
Оператор: ? Нкр.=(600)м. ДПРМ:707-"BD/ZJ", БПРМ:345-"B/Z".
Погода: 

Авиационная погода в Ханты-Мансийске

Регион: 
Погода METAR: 
USHH 282200Z 29001MPS 4400 -SHRA BR BKN003CB 10/10 Q0996 R24/290050 TEMPO 1000 SHRA BR OVC002CB
Время наблюдения
2022-06-28T22:00:00Z
Температура C
10.0
Точка росы
10.0
Направление ветра
290
Скорость ветра (узлы)
2
Метео видимость
2.73
Облачность
BKN
Нижняя граница облачности (футы)
300
Явления погоды
-SHRA BR
Условия полета
LIFR
Аэропорт подробнее: 
BKN – значительная (рассеянная, разорванная) облачность;
-SHRA - слабый ливневой дождь; BR – дымка (видимость от 1 до 9 км);

Найти трансфер

С помощью этой формы Вы можете найти трансфер из аэропорта Ханты-Мансийск в город, аэропорт или вокзал:

Погода в аэропортах:

Авиационная погода в Архангельске

Регион: 
Погода METAR: 
ULAA 282200Z 00000MPS 9999 MIFG NSC 06/06 Q1028 R26/CLRD70 NOSIG RMK QFE769/1026
Время наблюдения
2022-06-28T22:00:00Z
Температура C
6.0
Точка росы
6.0
Направление ветра
0
Скорость ветра (узлы)
0
Метео видимость
6.21
Облачность
CLR
Нижняя граница облачности (футы)
Явления погоды
MIFG
Условия полета
VFR
Аэропорт подробнее: 
CLR — нет облаков ниже 3000 м
MIFG - туман поземный;

Авиационная погода в Магнитогорске

Погода METAR: 
USCM 282200Z 31003MPS 5000 BR SCT040CB 04/02 Q1009 R36/090060 TEMPO 1500 BR RMK QFE719
Время наблюдения
2022-06-28T22:00:00Z
Температура C
4.0
Точка росы
2.0
Направление ветра
310
Скорость ветра (узлы)
6
Метео видимость
3.11
Облачность
SCT
Нижняя граница облачности (футы)
4000
Явления погоды
BR
Условия полета
MVFR
Аэропорт подробнее: 
SCT – разбросанная отдельная облачность;
BR – дымка (видимость от 1 до 9 км);

Авиационная погода в Сургуте

Регион: 
Погода METAR: 
USRR 300330Z 02007MPS 350V050 9000 -SHRA SCT009 BKN018CB 10/09 Q0993 R07/290245 NOSIG RMK OBST OBSC QFE740
Время наблюдения
2022-06-30T03:30:00Z
Температура C
10.0
Точка росы
9.0
Направление ветра
20
Скорость ветра (узлы)
14
Метео видимость
5.59
Облачность
SCT
BKN
Нижняя граница облачности (футы)
900
1800
Явления погоды
-SHRA
Условия полета
MVFR
Аэропорт подробнее: 
SCT – разбросанная отдельная облачность; BKN – значительная (рассеянная, разорванная) облачность;
-SHRA - слабый ливневой дождь;

Авиационная погода в Бухте Провидения

Погода METAR: 
UHMD 282200Z 20004MPS 2500 BR OVC003 06/05 Q1018 RMK QBB110 MT OBSC QFE763/1017
Время наблюдения
2022-06-28T22:00:00Z
Температура C
6.0
Точка росы
5.0
Направление ветра
200
Скорость ветра (узлы)
8
Метео видимость
1.55
Облачность
OVC
Нижняя граница облачности (футы)
300
Явления погоды
BR
Условия полета
LIFR
Аэропорт подробнее: 
OVC – сплошная облачность;
BR – дымка (видимость от 1 до 9 км);